Terminal Aerodrome Forecast
Issued by NWS Corpus Christi, TX

Home | Current Version | Previous Version | Text Only | Print | Product List | Glossary On
Versions: 1 2 3 4 5 6 7 8 9 10 11 12 13 14 15 16 17 18 19 20 21 22 23 24 25
564
FTUS44 KCRP 222341
TAFCRP
TAF
KCRP 222341Z 2300/2324 35008KT 6SM BR OVC006
      TEMPO 2300/2302 4SM -DZ BR OVC004
     FM230200 01006KT 4SM BR OVC004
     FM230600 03007KT 1SM -DZ BR OVC003
      TEMPO 2309/2313 1/2SM -DZ FG OVC002
     FM231500 06007KT 4SM BR OVC006
     FM232100 14020KT P6SM BKN030=

USA.gov is the U.S. government's official web portal to all federal, state and local government web resources and services.